Airfield :
LOGIN :

Register | Disclaimer

   EN    FR    IT 

 










Legend :    VFR   Marginal VFR   IFR   Intensive IFR   Very Intensive IFR
Visi :
Ceiling :
>= 8 km
>= 3000ft
5 to 8 km
1000 to 3000 ft
1500m to 5 km
500 to 1000 ft
800 to 1500m
200 to 500 ft
< 800m
< 200 ft
Symbols :   Thunderstorms  Fog  Heavy snow  Heavy precipitations  Wind > 20 kt
SIGMETs :     Misc.  Thunderstorms  Icing  Turbulence  Mountain Waves  Volcanic Ashes






- Airport Elevation : 634 ft
- IATA code : MXX


ESKM - Mora

CURRENT METAR :
  • 150720Z AUTO 29002KT 2800 FZDZ FEW007/// SCT010/// BKN016/// M00/M00 Q1022 REFZUP REFZDZ

EXPIRED METARs :
  • 150650Z AUTO 33001KT 5000 BR BKN009/// OVC017/// M00/M00 Q1022
  • 150620Z AUTO 35002KT 4100 BR OVC008/// M00/M00 Q1022
  • 150550Z AUTO 28002KT 5000 BR OVC009/// M00/M00 Q1021
  • 150520Z AUTO 29002KT 5000 BR OVC009/// M00/M00 Q1021
  • 150450Z AUTO 34002KT 4400 BR FEW003/// OVC008/// M01/M01 Q1021
  • 150420Z AUTO VRB01KT 2600 BR FEW002/// OVC007/// M01/M01 Q1020

TAF N/A



MET'MAP, your aeronautical weather chart ! - Copyright ORBIFLY December 2007 - Disclaimer

ORBIFLY MET'MAP TEAM :

Programming & Development : Alexandra Zaïnal
Concept & Development : Baudouin d'Aumeries
Co-Development & Prog : Marc-Olivier Méhu
Technical & hardware support : Manuel Goepfert

Contact : metmap@orbifly.com




SOURCES & CREDITS :

   NOAA